Flight Track Log - Related Links

Times and Time Zones

All times are in EDT time to prevent confusion due to time zone crossing. See the N550PM flight status page for this flight to view local times or setup timezone preferences in your user account.

Time Position Orientation Groundspeed Altitude Reporting Facility
EDT Latitude Longitude Course Direction KTS MPH feet Rate Location/Type
Wed 08:41:00 PM -15.9094 166.4409 315° West  Level FlightAware Approximate
Wed 08:42:00 PM -15.8229 166.3519 315° West  Level FlightAware Approximate
Wed 08:43:00 PM -15.7364 166.2630 315° West  Level FlightAware Approximate
Wed 08:44:00 PM -15.6498 166.1741 315° West  Level FlightAware Approximate
Wed 08:45:00 PM -15.5633 166.0853 315° West  Level FlightAware Approximate
Wed 08:46:00 PM -15.4767 165.9965 315° West  Level FlightAware Approximate
Wed 08:47:00 PM -15.3900 165.9079 315° West  Level FlightAware Approximate
Wed 08:48:00 PM -15.3033 165.8193 315° West  Level FlightAware Approximate
Wed 08:49:00 PM -15.2166 165.7307 315° West  Level FlightAware Approximate
Wed 08:50:00 PM -15.1298 165.6423 315° West  Level FlightAware Approximate
Wed 08:51:00 PM -15.0430 165.5539 315° West  Level FlightAware Approximate
Wed 08:52:00 PM -14.9562 165.4656 315° West  Level FlightAware Approximate
Wed 08:53:00 PM -14.8694 165.3774 316° Northwest  Level FlightAware Approximate
Wed 08:54:00 PM -14.7825 165.2892 316° Northwest  Level FlightAware Approximate
Wed 08:55:00 PM -14.6955 165.2012 316° Northwest  Level FlightAware Approximate
Wed 08:56:00 PM -14.6086 165.1131 316° Northwest  Level FlightAware Approximate
Wed 08:57:00 PM -14.5216 165.0252 316° Northwest  Level FlightAware Approximate
Wed 08:58:00 PM -14.4346 164.9373 316° Northwest  Level FlightAware Approximate
Wed 08:59:00 PM -14.3475 164.8495 316° Northwest  Level FlightAware Approximate
Wed 09:00:00 PM -14.2604 164.7617 316° Northwest  Level FlightAware Approximate
Wed 09:01:00 PM -14.1733 164.6741 316° Northwest  Level FlightAware Approximate
Wed 09:02:00 PM -14.0861 164.5865 316° Northwest  Level FlightAware Approximate
Wed 09:03:00 PM -13.9989 164.4989 316° Northwest  Level FlightAware Approximate
Wed 09:04:00 PM -13.9117 164.4115 316° Northwest  Level FlightAware Approximate
Wed 09:05:00 PM -13.8245 164.3241 316° Northwest  Level FlightAware Approximate
Wed 09:06:00 PM -13.7372 164.2367 316° Northwest  Level FlightAware Approximate
Wed 09:07:00 PM -13.6499 164.1494 316° Northwest  Level FlightAware Approximate
Wed 09:08:00 PM -13.5625 164.0622 316° Northwest  Level FlightAware Approximate
Wed 09:08:12 PM -13.8530 164.3391 323° Northwest 43,000  Level Aus ATC (Calculated)
Wed 09:09:00 PM -13.4752 163.9751 316° Northwest  Level FlightAware Approximate
Wed 09:10:00 PM -13.6586 164.2350 316° Northwest  Level Estimated
Wed 09:11:00 PM -13.5722 164.1468 315° West  Level FlightAware Approximate
Wed 09:11:13 PM -13.6072 164.0941 324° Northwest 43,000  Level Aus ATC (Calculated)
Wed 09:13:00 PM -13.4507 163.9394 316° Northwest  Level FlightAware Approximate
Wed 09:14:00 PM -13.3630 163.8527 316° Northwest  Level FlightAware Approximate
Wed 09:15:00 PM -13.2751 163.7661 316° Northwest  Level FlightAware Approximate
Wed 09:15:03 PM -13.2852 163.7744 324° Northwest 43,000  Level Aus ATC (Calculated)
Wed 09:16:34 PM -13.1623 163.6526 324° Northwest 43,000  Level Aus ATC (Calculated)
Wed 09:18:00 PM -13.0362 163.5287 316° Northwest  Level FlightAware Approximate
Wed 09:19:00 PM -12.9483 163.4424 316° Northwest  Level FlightAware Approximate
Wed 09:19:18 PM -12.9276 163.4207 324° Northwest 43,000  Level Aus ATC (Calculated)
Wed 09:20:00 PM -12.8603 163.3561 316° Northwest  Level FlightAware Approximate
Wed 09:21:00 PM -12.7780 163.2742 316° Northwest  Level FlightAware Approximate
Wed 09:22:00 PM -12.6899 163.1881 316° Northwest  Level FlightAware Approximate
Wed 09:23:00 PM -12.6018 163.1020 316° Northwest  Level FlightAware Approximate
Wed 09:24:00 PM -12.5137 163.0160 316° Northwest  Level FlightAware Approximate
Wed 09:25:00 PM -12.4255 162.9300 316° Northwest  Level FlightAware Approximate
Wed 09:26:00 PM -12.3374 162.8441 316° Northwest  Level FlightAware Approximate
Wed 09:27:00 PM -12.2492 162.7583 316° Northwest  Level FlightAware Approximate
Wed 09:28:00 PM -12.1609 162.6725 316° Northwest  Level FlightAware Approximate
Wed 09:29:00 PM -12.0727 162.5868 316° Northwest  Level FlightAware Approximate
Wed 09:30:00 PM -11.9844 162.5012 316° Northwest  Level FlightAware Approximate
Wed 09:31:00 PM -11.8961 162.4156 317° Northwest  Level FlightAware Approximate
Wed 09:32:00 PM -11.8077 162.3300 317° Northwest  Level FlightAware Approximate
Wed 09:33:00 PM -11.7194 162.2445 317° Northwest  Level FlightAware Approximate
Wed 09:34:00 PM -11.6310 162.1591 317° Northwest  Level FlightAware Approximate
Wed 09:35:00 PM -11.5426 162.0737 317° Northwest  Level FlightAware Approximate
Wed 09:36:00 PM -11.4541 161.9884 317° Northwest  Level FlightAware Approximate
Wed 09:37:00 PM -11.3657 161.9031 317° Northwest  Level FlightAware Approximate
Wed 09:38:00 PM -11.2772 161.8179 317° Northwest  Level FlightAware Approximate
Wed 09:39:00 PM -11.1887 161.7327 317° Northwest  Level FlightAware Approximate
Wed 09:40:00 PM -11.1001 161.6476 317° Northwest  Level FlightAware Approximate
Wed 09:41:00 PM -11.0116 161.5625 317° Northwest  Level FlightAware Approximate
Wed 09:42:00 PM -10.9022 161.5081 316° Northwest  Level Estimated
Wed 09:43:00 PM -10.8168 161.4198 315° West  Level FlightAware Approximate
Wed 09:43:16 PM -10.9352 161.4759 326° Northwest 43,000  Level Aus ATC (Calculated)
Wed 09:45:00 PM -10.7808 161.3295 317° Northwest  Level FlightAware Approximate
Wed 09:46:00 PM -10.6917 161.2451 317° Northwest  Level FlightAware Approximate
Wed 09:47:00 PM -10.6026 161.1607 317° Northwest  Level FlightAware Approximate
Wed 09:48:00 PM -10.4930 161.1068 316° Northwest  Level Estimated
Wed 09:48:20 PM -10.5019 161.0582 327° Northwest 43,000  Level Aus ATC (Calculated)
Wed 09:50:00 PM -10.3546 160.9164 317° Northwest  Level FlightAware Approximate
Wed 09:51:00 PM -10.2662 160.8313 317° Northwest  Level FlightAware Approximate
Wed 09:52:00 PM -10.1778 160.7464 317° Northwest  Level FlightAware Approximate
Wed 09:53:00 PM -10.0893 160.6614 317° Northwest  Level FlightAware Approximate
Wed 09:54:00 PM -10.0009 160.5765 317° Northwest  Level FlightAware Approximate
Wed 09:55:00 PM -9.9124 160.4917 317° Northwest  Level FlightAware Approximate
Wed 09:56:00 PM -9.8025 160.4386 328° Northwest  Level Estimated
Wed 09:56:00 PM -9.8000 160.3854 328° Northwest 43,000  Level Aus ATC (Calculated)
Wed 09:56:29 PM -9.7544 160.3418 328° Northwest 43,000  Level Aus ATC (Calculated)
Wed 09:57:04 PM -9.7088 160.2983 328° Northwest 43,000  Level Aus ATC (Calculated)
Wed 09:58:43 PM -9.5720 160.1677 328° Northwest 43,000  Level Aus ATC (Calculated)
Wed 09:59:00 PM -9.5162 160.1612 325° Northwest  Level FlightAware Approximate
Wed 10:00:00 PM -9.4421 160.0798 326° Northwest  Level FlightAware Approximate
Wed 10:01:00 PM -9.3409 160.0112 326° Northwest  Level FlightAware Approximate
Wed 10:02:00 PM -9.2396 159.9428 326° Northwest  Level FlightAware Approximate
Wed 10:02:04 PM -9.2223 159.9028 328° Northwest 43,000  Level Aus ATC (Calculated)
Wed 10:03:36 PM -9.1159 159.8356 328° Northwest 43,000  Level Aus ATC (Calculated)
Wed 10:04:00 PM -9.0226 159.7767 328° Northwest  Level FlightAware Approximate
Wed 10:05:00 PM -8.9616 159.7623 328° Northwest  Level Estimated
Wed 10:06:00 PM -8.8595 159.6953 327° Northwest  Level FlightAware Approximate
Wed 10:07:00 PM -8.7573 159.6284 327° Northwest  Level FlightAware Approximate
Wed 10:08:00 PM -8.6552 159.5615 327° Northwest  Level FlightAware Approximate
Wed 10:08:41 PM -8.6369 159.5338 328° Northwest 43,000  Level Aus ATC (Calculated)
Wed 10:10:00 PM -8.5008 159.4481 328° Northwest  Level FlightAware Approximate
Wed 10:11:00 PM -8.3905 159.3961 328° Northwest  Level Estimated
Wed 10:12:00 PM -8.2878 159.3302 328° Northwest  Level FlightAware Approximate
Wed 10:13:00 PM -8.1850 159.2643 328° Northwest  Level FlightAware Approximate
Wed 10:14:00 PM -8.0822 159.1984 328° Northwest  Level FlightAware Approximate
Wed 10:14:59 PM -7.9407 159.0965 328° Northwest 43,000  Level Aus ATC (Calculated)
Wed 10:15:00 PM -7.9795 159.1326 328° Northwest  Level FlightAware Approximate
Wed 10:16:00 PM -7.8360 159.0299 328° Northwest  Level FlightAware Approximate
Wed 10:17:00 PM -7.7329 158.9646 328° Northwest  Level FlightAware Approximate
Wed 10:18:00 PM -7.6299 158.8992 328° Northwest  Level FlightAware Approximate
Wed 10:19:00 PM -7.5269 158.8339 328° Northwest  Level FlightAware Approximate
Wed 10:20:00 PM -7.4238 158.7686 328° Northwest  Level FlightAware Approximate
Wed 10:21:00 PM -7.3207 158.7033 328° Northwest  Level FlightAware Approximate
Wed 10:22:00 PM -7.2176 158.6380 328° Northwest  Level FlightAware Approximate
Wed 10:23:00 PM -7.1146 158.5728 328° Northwest  Level FlightAware Approximate
Wed 10:24:00 PM -7.0114 158.5077 328° Northwest  Level FlightAware Approximate
Wed 10:25:00 PM -6.9083 158.4425 328° Northwest  Level FlightAware Approximate
Wed 10:26:00 PM -6.8052 158.3774 328° Northwest  Level FlightAware Approximate
Wed 10:27:00 PM -6.7021 158.3123 328° Northwest  Level FlightAware Approximate
Wed 10:28:00 PM -6.5990 158.2472 328° Northwest  Level FlightAware Approximate
Wed 10:29:00 PM -6.4958 158.1822 328° Northwest  Level FlightAware Approximate
Wed 10:30:00 PM -6.3927 158.1172 328° Northwest  Level FlightAware Approximate
Wed 10:30:01 PM -6.3677 158.1156 329° Northwest 43,000  Level Aus ATC (Calculated)
Wed 10:32:00 PM -6.1649 157.9839 327° Northwest  Level FlightAware Approximate
Wed 10:33:00 PM -6.0627 157.9175 327° Northwest  Level FlightAware Approximate
Wed 10:34:00 PM -5.9519 157.8668 329° Northwest  Level Estimated
Wed 10:35:00 PM -5.8135 157.7812 328° Northwest  Level FlightAware Approximate
Wed 10:36:00 PM -5.6751 157.6957 328° Northwest  Level FlightAware Approximate
Wed 10:37:00 PM -5.5367 157.6102 328° Northwest  Level FlightAware Approximate
Wed 10:38:00 PM -5.3982 157.5247 328° Northwest  Level FlightAware Approximate
Wed 10:39:00 PM -5.2598 157.4393 328° Northwest  Level FlightAware Approximate
Wed 10:40:00 PM -5.1213 157.3539 328° Northwest  Level FlightAware Approximate
Wed 10:41:00 PM -4.9828 157.2686 328° Northwest  Level FlightAware Approximate
Wed 10:42:00 PM -4.8443 157.1833 328° Northwest  Level FlightAware Approximate
Wed 10:43:00 PM -4.7058 157.0980 328° Northwest  Level FlightAware Approximate
Wed 10:44:00 PM -4.5673 157.0128 328° Northwest  Level FlightAware Approximate
Wed 10:45:00 PM -4.4288 156.9276 328° Northwest  Level FlightAware Approximate
Wed 10:46:00 PM -4.2903 156.8424 328° Northwest  Level FlightAware Approximate
Wed 10:47:00 PM -4.1517 156.7572 328° Northwest  Level FlightAware Approximate
Wed 10:48:00 PM -4.0132 156.6721 328° Northwest  Level FlightAware Approximate
Wed 10:49:00 PM -3.8746 156.5870 329° Northwest  Level FlightAware Approximate
Wed 10:50:00 PM -3.7361 156.5020 329° Northwest  Level FlightAware Approximate
Wed 10:51:00 PM -3.6323 156.4383 329° Northwest  Level FlightAware Approximate
Wed 10:52:00 PM -3.5285 156.3746 329° Northwest  Level FlightAware Approximate
Wed 10:53:00 PM -3.4247 156.3109 329° Northwest  Level FlightAware Approximate
Wed 10:54:00 PM -3.3209 156.2473 329° Northwest  Level FlightAware Approximate
Wed 10:55:00 PM -3.2171 156.1836 329° Northwest  Level FlightAware Approximate
Wed 10:56:00 PM -3.1133 156.1200 329° Northwest  Level FlightAware Approximate
Wed 10:57:00 PM -3.0094 156.0564 329° Northwest  Level FlightAware Approximate
Wed 10:58:00 PM -2.9056 155.9928 329° Northwest  Level FlightAware Approximate
Wed 10:59:00 PM -2.8018 155.9292 329° Northwest  Level FlightAware Approximate
Wed 11:00:00 PM -2.6980 155.8656 329° Northwest  Level FlightAware Approximate
Wed 11:01:00 PM -2.5941 155.8021 329° Northwest  Level FlightAware Approximate
Wed 11:02:00 PM -2.4903 155.7385 329° Northwest  Level FlightAware Approximate
Wed 11:03:00 PM -2.3865 155.6750 329° Northwest  Level FlightAware Approximate
Wed 11:04:00 PM -2.2826 155.6114 329° Northwest  Level FlightAware Approximate
Wed 11:05:00 PM -2.1788 155.5479 329° Northwest  Level FlightAware Approximate
Wed 11:06:00 PM -2.0749 155.4844 329° Northwest  Level FlightAware Approximate
Wed 11:07:00 PM -1.9711 155.4209 329° Northwest  Level FlightAware Approximate
Wed 11:08:00 PM -1.8672 155.3574 329° Northwest  Level FlightAware Approximate
Wed 11:09:00 PM -1.7634 155.2939 329° Northwest  Level FlightAware Approximate
Wed 11:10:00 PM -1.6595 155.2304 329° Northwest  Level FlightAware Approximate
Wed 11:11:00 PM -1.5557 155.1669 329° Northwest  Level FlightAware Approximate
Wed 11:12:00 PM -1.4518 155.1034 329° Northwest  Level FlightAware Approximate
Wed 11:13:00 PM -1.3479 155.0400 329° Northwest  Level FlightAware Approximate
Wed 11:14:00 PM -1.2441 154.9765 329° Northwest  Level FlightAware Approximate
Wed 11:15:00 PM -1.1402 154.9130 329° Northwest  Level FlightAware Approximate
Wed 11:16:00 PM -1.0364 154.8496 329° Northwest  Level FlightAware Approximate
Wed 11:17:00 PM -0.9325 154.7861 329° Northwest  Level FlightAware Approximate
Wed 11:18:00 PM -0.8286 154.7227 329° Northwest  Level FlightAware Approximate
Wed 11:19:00 PM -0.7247 154.6593 329° Northwest  Level FlightAware Approximate
Wed 11:20:00 PM -0.6209 154.5958 329° Northwest  Level FlightAware Approximate
Wed 11:21:00 PM -0.5170 154.5324 329° Northwest  Level FlightAware Approximate
Wed 11:22:00 PM -0.4131 154.4689 329° Northwest  Level FlightAware Approximate
Wed 11:23:00 PM -0.3014 154.4207 329° Northwest  Level Estimated
Wed 11:24:00 PM -0.1975 154.3573 329° Northwest  Level FlightAware Approximate
Wed 11:25:00 PM -0.0936 154.2939 329° Northwest  Level FlightAware Approximate
Wed 11:26:00 PM 0.0103 154.2305 329° Northwest  Level FlightAware Approximate
Wed 11:27:00 PM 0.1141 154.1671 329° Northwest  Level FlightAware Approximate
Wed 11:28:00 PM 0.2180 154.1036 329° Northwest  Level FlightAware Approximate
Wed 11:29:00 PM 0.3219 154.0402 329° Northwest  Level FlightAware Approximate
Wed 11:30:00 PM 0.4258 153.9768 329° Northwest  Level FlightAware Approximate
Wed 11:31:00 PM 0.5297 153.9134 329° Northwest  Level FlightAware Approximate
Wed 11:32:00 PM 0.6335 153.8500 329° Northwest  Level FlightAware Approximate
Wed 11:33:00 PM 0.7374 153.7865 329° Northwest  Level FlightAware Approximate
Wed 11:34:00 PM 0.8413 153.7231 329° Northwest  Level FlightAware Approximate
Wed 11:35:00 PM 0.9452 153.6597 329° Northwest  Level FlightAware Approximate
Wed 11:35:40 PM 0.0000 154.2333 329° Northwest 447 514 43,000  Level Oakland Oceanic (ODAPS)
Wed 11:36:00 PM 1.0491 153.5962 329° Northwest  Level FlightAware Approximate
Wed 11:37:00 PM 1.1529 153.5328 329° Northwest  Level FlightAware Approximate
Wed 11:38:00 PM 1.2568 153.4693 329° Northwest  Level FlightAware Approximate
Wed 11:39:00 PM 1.3607 153.4059 329° Northwest  Level FlightAware Approximate
Wed 11:40:00 PM 1.4645 153.3424 329° Northwest  Level FlightAware Approximate
Wed 11:41:00 PM 1.9170 153.0636 329° Northwest 447 514 43,000  Level FlightAware Transoceanic
Wed 11:42:00 PM 2.0235 152.9986 329° Northwest 447 514 43,000  Level FlightAware Transoceanic
Wed 11:43:00 PM 2.1300 152.9335 329° Northwest 447 514 43,000  Level FlightAware Transoceanic
Wed 11:44:00 PM 2.2364 152.8685 329° Northwest 447 514 43,000  Level FlightAware Transoceanic
Wed 11:45:00 PM 2.3429 152.8034 329° Northwest 447 514 43,000  Level FlightAware Transoceanic
Wed 11:46:00 PM 2.4494 152.7383 329° Northwest 447 514 43,000  Level FlightAware Transoceanic
Wed 11:47:00 PM 2.5559 152.6732 329° Northwest 447 514 43,000  Level FlightAware Transoceanic
Wed 11:48:00 PM 2.6623 152.6082 329° Northwest 447 514 43,000  Level FlightAware Transoceanic
Wed 11:49:00 PM 2.7688 152.5430 329° Northwest 447 514 43,000  Level FlightAware Transoceanic
Wed 11:50:00 PM 2.8752 152.4779 329° Northwest 447 514 43,000  Level FlightAware Transoceanic
Wed 11:51:00 PM 2.9817 152.4128 329° Northwest 447 514 43,000  Level FlightAware Transoceanic
Wed 11:52:00 PM 3.0882 152.3477 329° Northwest 447 514 43,000  Level FlightAware Transoceanic
Wed 11:53:00 PM 3.1946 152.2825 329° Northwest 447 514 43,000  Level FlightAware Transoceanic
Wed 11:54:00 PM 3.3010 152.2173 329° Northwest 447 514 43,000  Level FlightAware Transoceanic
Wed 11:55:00 PM 3.4075 152.1521 329° Northwest 447 514 43,000  Level FlightAware Transoceanic
Wed 11:56:00 PM 3.5139 152.0869 329° Northwest 447 514 43,000  Level FlightAware Transoceanic
Wed 11:57:00 PM 3.6203 152.0217 329° Northwest 447 514 43,000  Level FlightAware Transoceanic
Wed 11:58:00 PM 3.7268 151.9565 329° Northwest 447 514 43,000  Level FlightAware Transoceanic
Wed 11:59:00 PM 3.8332 151.8913 329° Northwest 447 514 43,000  Level FlightAware Transoceanic
Thu 12:00:00 AM 3.9396 151.8260 329° Northwest 447 514 43,000  Level FlightAware Transoceanic
Thu 12:01:00 AM 4.0460 151.7607 329° Northwest 447 514 43,000  Level FlightAware Transoceanic
Thu 12:02:00 AM 4.1524 151.6954 329° Northwest 447 514 43,000  Level FlightAware Transoceanic
Thu 12:03:00 AM 4.2588 151.6301 329° Northwest 447 514 43,000  Level FlightAware Transoceanic
Thu 12:04:00 AM 4.3652 151.5648 329° Northwest 447 514 43,000  Level FlightAware Transoceanic
Thu 12:05:00 AM 4.4716 151.4994 329° Northwest 447 514 43,000  Level FlightAware Transoceanic
Thu 12:06:00 AM 4.5780 151.4341 329° Northwest 447 514 43,000  Level FlightAware Transoceanic
Thu 12:07:00 AM 4.6844 151.3687 329° Northwest 447 514 43,000  Level FlightAware Transoceanic
Thu 12:08:00 AM 4.7907 151.3033 328° Northwest 447 514 43,000  Level FlightAware Transoceanic
Thu 12:09:00 AM 4.8971 151.2378 328° Northwest 447 514 43,000  Level FlightAware Transoceanic
Thu 12:10:00 AM 5.0035 151.1724 328° Northwest 447 514 43,000  Level FlightAware Transoceanic
Thu 12:11:00 AM 5.1098 151.1069 328° Northwest 447 514 43,000  Level FlightAware Transoceanic
Thu 12:12:00 AM 5.2162 151.0414 328° Northwest 447 514 43,000  Level FlightAware Transoceanic
Thu 12:13:00 AM 5.3225 150.9759 328° Northwest 447 514 43,000  Level FlightAware Transoceanic
Thu 12:14:00 AM 5.4288 150.9104 328° Northwest 447 514 43,000  Level FlightAware Transoceanic
Thu 12:15:00 AM 5.5352 150.8448 328° Northwest 447 514 43,000  Level FlightAware Transoceanic
Thu 12:16:00 AM 5.6415 150.7792 328° Northwest 447 514 43,000  Level FlightAware Transoceanic
Thu 12:17:00 AM 5.7478 150.7136 328° Northwest 447 514 43,000  Level FlightAware Transoceanic
Thu 12:18:00 AM 5.8541 150.6480 328° Northwest 447 514 43,000  Level FlightAware Transoceanic
Thu 12:19:00 AM 5.9604 150.5824 328° Northwest 447 514 43,000  Level FlightAware Transoceanic
Thu 12:20:00 AM 6.0667 150.5167 329° Northwest 447 514 43,000 1,348 Level FlightAware Transoceanic
Thu 12:20:29 AM 6.0667 150.5167 329° Northwest 438 504 45,000  Climbing Oakland Oceanic (ODAPS)
Thu 12:21:00 AM 6.1712 150.4526 329° Northwest 447 514 43,000 -1,319 Descending FlightAware Transoceanic
Thu 12:22:00 AM 6.2758 150.3886 329° Northwest 447 514 43,000  Level FlightAware Transoceanic
Thu 12:23:00 AM 6.3803 150.3245 329° Northwest 447 514 43,000  Level FlightAware Transoceanic
Thu 12:24:00 AM 6.4849 150.2603 329° Northwest 447 514 43,000  Level FlightAware Transoceanic
Thu 12:25:00 AM 6.5894 150.1962 329° Northwest 447 514 43,000 1,000 Level FlightAware Transoceanic
Thu 12:26:00 AM 6.7984 150.0678 329° Northwest 438 504 45,000 1,000 Climbing FlightAware Transoceanic
Thu 12:27:00 AM 6.9029 150.0036 329° Northwest 438 504 45,000  Level FlightAware Transoceanic
Thu 12:28:00 AM 7.0074 149.9393 329° Northwest 438 504 45,000  Level FlightAware Transoceanic
Thu 12:29:00 AM 7.1119 149.8750 329° Northwest 438 504 45,000  Level FlightAware Transoceanic
Thu 12:30:00 AM 7.2164 149.8107 329° Northwest 438 504 45,000  Level FlightAware Transoceanic
Thu 12:31:00 AM 7.3208 149.7464 329° Northwest 438 504 45,000  Level FlightAware Transoceanic
Thu 12:32:00 AM 7.4253 149.6820 329° Northwest 438 504 45,000  Level FlightAware Transoceanic
Thu 12:33:00 AM 7.5297 149.6176 329° Northwest 438 504 45,000  Level FlightAware Transoceanic
Thu 12:34:00 AM 7.6342 149.5532 329° Northwest 438 504 45,000  Level FlightAware Transoceanic
Thu 12:35:00 AM 7.7386 149.4887 329° Northwest 438 504 45,000  Level FlightAware Transoceanic
Thu 12:36:00 AM 7.8430 149.4242 329° Northwest 438 504 45,000  Level FlightAware Transoceanic
Thu 12:37:00 AM 7.9475 149.3597 329° Northwest 438 504 45,000  Level FlightAware Transoceanic
Thu 12:38:00 AM 8.0519 149.2951 329° Northwest 438 504 45,000  Level FlightAware Transoceanic
Thu 12:39:00 AM 8.1562 149.2305 329° Northwest 438 504 45,000  Level FlightAware Transoceanic
Thu 12:40:00 AM 8.2606 149.1659 328° Northwest 438 504 45,000  Level FlightAware Transoceanic
Thu 12:41:00 AM 8.3650 149.1012 328° Northwest 438 504 45,000  Level FlightAware Transoceanic
Thu 12:42:00 AM 8.4693 149.0365 328° Northwest 438 504 45,000  Level FlightAware Transoceanic
Thu 12:43:00 AM 8.5737 148.9718 328° Northwest 438 504 45,000  Level FlightAware Transoceanic
Thu 12:44:00 AM 8.6780 148.9070 328° Northwest 438 504 45,000  Level FlightAware Transoceanic
Thu 12:45:00 AM 8.7824 148.8422 328° Northwest 438 504 45,000  Level FlightAware Transoceanic
Thu 12:46:00 AM 8.8867 148.7773 328° Northwest 438 504 45,000  Level FlightAware Transoceanic
Thu 12:47:00 AM 8.9910 148.7125 328° Northwest 438 504 45,000  Level FlightAware Transoceanic
Thu 12:48:00 AM 9.0953 148.6476 328° Northwest 438 504 45,000  Level FlightAware Transoceanic
Thu 12:49:00 AM 9.1996 148.5826 328° Northwest 438 504 45,000  Level FlightAware Transoceanic
Thu 12:50:00 AM 9.3038 148.5176 328° Northwest 438 504 45,000  Level FlightAware Transoceanic
Thu 12:51:00 AM 9.4081 148.4526 328° Northwest 438 504 45,000  Level FlightAware Transoceanic
Thu 12:52:00 AM 9.5123 148.3875 328° Northwest 438 504 45,000  Level FlightAware Transoceanic
Thu 12:53:00 AM 9.6166 148.3224 328° Northwest 438 504 45,000  Level FlightAware Transoceanic
Thu 12:54:00 AM 9.7208 148.2572 328° Northwest 438 504 45,000  Level FlightAware Transoceanic
Thu 12:55:00 AM 9.8250 148.1920 328° Northwest 438 504 45,000  Level FlightAware Transoceanic
Thu 12:56:00 AM 9.9292 148.1268 328° Northwest 438 504 45,000  Level FlightAware Transoceanic
Thu 12:57:00 AM 10.0334 148.0615 328° Northwest 438 504 45,000  Level FlightAware Transoceanic
Thu 12:58:00 AM 10.1376 147.9962 328° Northwest 438 504 45,000  Level FlightAware Transoceanic
Thu 12:59:00 AM 10.2417 147.9308 328° Northwest 438 504 45,000  Level FlightAware Transoceanic
Thu 01:00:00 AM 10.3459 147.8654 328° Northwest 438 504 45,000  Level FlightAware Transoceanic
Thu 01:01:00 AM 10.4500 147.8000 328° Northwest 438 504 45,000  Level FlightAware Transoceanic
Thu 01:02:00 AM 10.5601 147.7302 328° Northwest 438 504 45,000  Level FlightAware Transoceanic
Thu 01:02:46 AM 10.5667 147.7333 328° Northwest 420 483 45,000  Level Guam Center
Thu 01:03:00 AM 10.6701 147.6604 328° Northwest 438 504 45,000  Level FlightAware Transoceanic
Thu 01:03:46 AM 10.6667 147.6833 334° Northwest 430 495 45,000  Level Guam Center
Thu 01:04:00 AM 10.7802 147.5905 328° Northwest 438 504 45,000  Level FlightAware Transoceanic
Thu 01:04:46 AM 10.7667 147.6167 327° Northwest 430 495 45,000  Level Guam Center
Thu 01:05:00 AM 10.8902 147.5206 328° Northwest 438 504 45,000  Level FlightAware Transoceanic
Thu 01:05:46 AM 10.8667 147.5333 321° Northwest 430 495 45,000  Level Guam Center
Thu 01:06:00 AM 11.0002 147.4507 328° Northwest 438 504 45,000  Level FlightAware Transoceanic
Thu 01:06:46 AM 10.9500 147.4667 322° Northwest 420 483 45,000  Level Guam Center
Thu 01:07:00 AM 11.1102 147.3806 328° Northwest 438 504 45,000  Level FlightAware Transoceanic
Thu 01:07:46 AM 11.0500 147.4000 327° Northwest 430 495 45,000  Level Guam Center
Thu 01:08:00 AM 11.2202 147.3105 328° Northwest 438 504 45,000  Level FlightAware Transoceanic
Thu 01:08:46 AM 11.1500 147.3333 327° Northwest 430 495 45,000  Level Guam Center
Thu 01:09:46 AM 11.2500 147.2500 321° Northwest 430 495 45,000  Level Guam Center
Thu 01:10:46 AM 11.3500 147.1833 327° Northwest 430 495 45,000  Level Guam Center
Thu 01:11:47 AM 11.4500 147.1167 327° Northwest 430 495 45,000  Level Guam Center
Thu 01:12:47 AM 11.5500 147.0333 321° Northwest 440 506 45,000  Level Guam Center
Thu 01:13:47 AM 11.6500 146.9667 327° Northwest 440 506 45,000  Level Guam Center
Thu 01:14:47 AM 11.7500 146.8833 321° Northwest 440 506 45,000  Level Guam Center
Thu 01:15:47 AM 11.8500 146.8167 327° Northwest 440 506 45,000  Level Guam Center
Thu 01:16:47 AM 11.9500 146.7500 327° Northwest 440 506 45,000  Level Guam Center
Thu 01:17:48 AM 12.0500 146.6667 321° Northwest 440 506 45,000  Level Guam Center
Thu 01:18:48 AM 12.1500 146.6000 327° Northwest 440 506 45,000  Level Guam Center
Thu 01:19:48 AM 12.2500 146.5167 321° Northwest 430 495 45,000  Level Guam Center
Thu 01:20:48 AM 12.3333 146.4500 322° Northwest 440 506 45,000  Level Guam Center
Thu 01:21:48 AM 12.4500 146.3667 325° Northwest 450 518 45,000  Level Guam Center
Thu 01:22:48 AM 12.5500 146.3000 327° Northwest 440 506 45,000  Level Guam Center
Thu 01:23:48 AM 12.6333 146.2333 322° Northwest 440 506 45,000  Level Guam Center
Thu 01:24:49 AM 12.7333 146.1500 321° Northwest 430 495 45,000  Level Guam Center
Thu 01:25:49 AM 12.8333 146.0833 327° Northwest 440 506 45,000  Level Guam Center
Thu 01:26:49 AM 12.9333 146.0000 321° Northwest 440 506 45,000  Level Guam Center
Thu 01:27:49 AM 13.0333 145.9333 327° Northwest 450 518 45,000  Level Guam Center
Thu 01:28:49 AM 13.1333 145.8667 327° Northwest 440 506 45,000  Level Guam Center
Thu 01:29:49 AM 13.2333 145.7833 321° Northwest 440 506 45,000  Level Guam Center
Thu 01:30:50 AM 13.3333 145.7167 327° Northwest 440 506 45,000  Level Guam Center
Thu 01:31:50 AM 13.4500 145.6333 325° Northwest 430 495 45,000  Level Guam Center
Thu 01:32:50 AM 13.5500 145.5500 321° Northwest 440 506 45,000  Level Guam Center
Thu 01:33:50 AM 13.6500 145.4833 327° Northwest 450 518 45,000  Level Guam Center
Thu 01:34:50 AM 13.7500 145.4000 321° Northwest 450 518 45,000  Level Guam Center
Thu 01:35:50 AM 13.8500 145.3333 327° Northwest 440 506 45,000  Level Guam Center
Thu 01:36:50 AM 13.9500 145.2667 327° Northwest 440 506 45,000  Level Guam Center
Thu 01:37:50 AM 14.0500 145.1833 321° Northwest 440 506 45,000  Level Guam Center
Thu 01:38:50 AM 14.1500 145.1000 321° Northwest 440 506 45,000  Level Guam Center
Thu 01:39:51 AM 14.2500 145.0333 327° Northwest 440 506 45,000  Level Guam Center
Thu 01:40:51 AM 14.3500 144.9667 327° Northwest 440 506 45,000  Level Guam Center
Thu 01:41:51 AM 14.4333 144.8833 316° Northwest 430 495 45,000  Level Guam Center
Thu 01:42:51 AM 14.5333 144.8167 327° Northwest 440 506 45,000  Level Guam Center
Thu 01:43:51 AM 14.6333 144.7333 321° Northwest 440 506 45,000  Level Guam Center
Thu 01:44:51 AM 14.7333 144.6667 327° Northwest 440 506 45,000  Level Guam Center
Thu 01:45:52 AM 14.8333 144.5833 321° Northwest 440 506 45,000  Level Guam Center
Thu 01:46:52 AM 14.9333 144.5167 327° Northwest 440 506 45,000  Level Guam Center
Thu 01:47:52 AM 15.0333 144.4500 327° Northwest 440 506 45,000  Level Guam Center
Thu 01:48:52 AM 15.1333 144.3667 321° Northwest 440 506 45,000  Level Guam Center
Thu 01:49:52 AM 15.2333 144.3000 327° Northwest 440 506 45,000  Level Guam Center
Thu 01:50:52 AM 15.3167 144.2167 316° Northwest 430 495 45,000  Level Guam Center
Thu 01:51:52 AM 15.4167 144.1500 327° Northwest 430 495 45,000  Level Guam Center
Thu 01:52:53 AM 15.5167 144.0667 321° Northwest 430 495 45,000  Level Guam Center
Thu 01:53:53 AM 15.6167 144.0000 327° Northwest 430 495 45,000  Level Guam Center
Thu 01:54:52 AM 15.7167 143.9167 321° Northwest 430 495 45,000  Level Guam Center
Thu 01:55:53 AM 15.8167 143.8500 327° Northwest 430 495 45,000  Level Guam Center
Thu 01:56:53 AM 15.9167 143.7667 321° Northwest 450 518 45,000  Level Guam Center
Thu 01:57:53 AM 16.0167 143.7000 327° Northwest 450 518 45,000  Level Guam Center
Thu 01:58:53 AM 16.1000 143.6167 316° Northwest 440 506 45,000  Level Guam Center
Thu 01:59:53 AM 16.2000 143.5500 327° Northwest 440 506 45,000  Level Guam Center
Thu 02:00:53 AM 16.3000 143.4667 321° Northwest 440 506 45,000  Level Guam Center
Thu 02:01:54 AM 16.4000 143.4000 327° Northwest 450 518 45,000  Level Guam Center
Thu 02:02:54 AM 16.5000 143.3167 321° Northwest 440 506 45,000  Level Guam Center
Thu 02:03:54 AM 16.6000 143.2333 321° Northwest 440 506 45,000  Level Guam Center
Thu 02:04:54 AM 16.7000 143.1667 327° Northwest 440 506 45,000  Level Guam Center
Thu 02:05:54 AM 16.8000 143.0833 321° Northwest 450 518 45,000  Level Guam Center
Thu 02:06:54 AM 16.9000 143.0167 327° Northwest 440 506 45,000  Level Guam Center
Thu 02:07:54 AM 17.0000 142.9333 321° Northwest 430 495 45,000  Level Guam Center
Thu 02:08:55 AM 17.1000 142.8667 327° Northwest 440 506 45,000  Level Guam Center
Thu 02:10:42 AM 17.2000 142.8167 331° Northwest 432 497 45,000  Level Oakland Oceanic (ODAPS)
Thu 02:17:00 AM 18.0467 142.3327 331° Northwest 432 497 45,000  Level FlightAware Transoceanic
Thu 02:18:00 AM 18.1524 142.2719 331° Northwest 432 497 45,000  Level FlightAware Transoceanic
Thu 02:19:00 AM 18.2582 142.2110 331° Northwest 432 497 45,000  Level FlightAware Transoceanic
Thu 02:20:00 AM 18.3639 142.1500 331° Northwest 432 497 45,000  Level FlightAware Transoceanic
Thu 02:21:00 AM 18.4696 142.0889 331° Northwest 432 497 45,000  Level FlightAware Transoceanic
Thu 02:22:00 AM 18.5752 142.0278 331° Northwest 432 497 45,000  Level FlightAware Transoceanic
Thu 02:23:00 AM 18.6809 141.9666 331° Northwest 432 497 45,000  Level FlightAware Transoceanic
Thu 02:24:00 AM 18.7865 141.9053 331° Northwest 432 497 45,000  Level FlightAware Transoceanic
Thu 02:25:00 AM 18.8922 141.8440 331° Northwest 432 497 45,000  Level FlightAware Transoceanic
Thu 02:26:00 AM 18.9977 141.7826 331° Northwest 432 497 45,000  Level FlightAware Transoceanic
Thu 02:27:00 AM 19.1033 141.7211 331° Northwest 432 497 45,000  Level FlightAware Transoceanic
Thu 02:28:00 AM 19.2089 141.6595 331° Northwest 432 497 45,000  Level FlightAware Transoceanic
Thu 02:29:00 AM 19.3144 141.5978 331° Northwest 432 497 45,000  Level FlightAware Transoceanic
Thu 02:30:00 AM 19.4199 141.5361 331° Northwest 432 497 45,000  Level FlightAware Transoceanic
Thu 02:31:00 AM 19.5254 141.4743 331° Northwest 432 497 45,000  Level FlightAware Transoceanic
Thu 02:32:00 AM 19.6309 141.4124 331° Northwest 432 497 45,000  Level FlightAware Transoceanic
Thu 02:33:00 AM 19.7363 141.3504 331° Northwest 432 497 45,000  Level FlightAware Transoceanic
Thu 02:34:00 AM 19.8417 141.2883 331° Northwest 432 497 45,000  Level FlightAware Transoceanic
Thu 02:35:00 AM 19.9472 141.2262 331° Northwest 432 497 45,000  Level FlightAware Transoceanic
Thu 02:36:00 AM 20.0525 141.1639 331° Northwest 432 497 45,000  Level FlightAware Transoceanic
Thu 02:37:00 AM 20.1579 141.1016 331° Northwest 432 497 45,000  Level FlightAware Transoceanic
Thu 02:38:00 AM 20.2632 141.0392 331° Northwest 432 497 45,000  Level FlightAware Transoceanic
Thu 02:39:00 AM 20.3686 140.9767 331° Northwest 432 497 45,000  Level FlightAware Transoceanic
Thu 02:40:00 AM 20.4739 140.9142 331° Northwest 432 497 45,000  Level FlightAware Transoceanic
Thu 02:41:00 AM 20.5791 140.8515 331° Northwest 432 497 45,000  Level FlightAware Transoceanic
Thu 02:42:00 AM 20.6844 140.7888 331° Northwest 432 497 45,000  Level FlightAware Transoceanic
Thu 02:43:00 AM 20.7896 140.7259 331° Northwest 432 497 45,000  Level FlightAware Transoceanic
Thu 02:44:00 AM 20.8948 140.6630 331° Northwest 432 497 45,000  Level FlightAware Transoceanic
Thu 02:45:00 AM 21.0000 140.6000 342° North 432 497 45,000  Level FlightAware Transoceanic
Thu 02:46:00 AM 21.1214 140.5578 342° North 432 497 45,000  Level FlightAware Transoceanic
Thu 02:47:00 AM 21.2428 140.5155 342° North 432 497 45,000  Level FlightAware Transoceanic
Thu 02:48:00 AM 21.3641 140.4731 342° North 432 497 45,000  Level FlightAware Transoceanic
Thu 02:49:00 AM 21.4855 140.4306 342° North 432 497 45,000  Level FlightAware Transoceanic
Thu 02:50:00 AM 21.6069 140.3881 342° North 432 497 45,000  Level FlightAware Transoceanic
Thu 02:51:00 AM 21.7282 140.3456 342° North 432 497 45,000  Level FlightAware Transoceanic
Thu 02:52:00 AM 21.8495 140.3029 342° North 432 497 45,000  Level FlightAware Transoceanic
Thu 02:53:00 AM 21.9709 140.2602 342° North 432 497 45,000  Level FlightAware Transoceanic
Thu 02:54:00 AM 22.0922 140.2174 342° North 432 497 45,000  Level FlightAware Transoceanic
Thu 02:55:00 AM 22.2135 140.1745 342° North 432 497 45,000  Level FlightAware Transoceanic
Thu 02:56:00 AM 22.3347 140.1315 342° North 432 497 45,000  Level FlightAware Transoceanic
Thu 02:57:00 AM 22.4560 140.0885 342° North 432 497 45,000  Level FlightAware Transoceanic
Thu 02:58:00 AM 22.5773 140.0454 342° North 432 497 45,000  Level FlightAware Transoceanic
Thu 02:59:00 AM 22.6985 140.0022 342° North 432 497 45,000  Level FlightAware Transoceanic
Thu 03:00:00 AM 22.8198 139.9590 342° North 432 497 45,000  Level FlightAware Transoceanic
Thu 03:01:00 AM 22.9410 139.9156 342° North 432 497 45,000  Level FlightAware Transoceanic
Thu 03:02:00 AM 23.0622 139.8722 342° North 432 497 45,000  Level FlightAware Transoceanic
Thu 03:03:00 AM 23.1834 139.8288 342° North 432 497 45,000  Level FlightAware Transoceanic
Thu 03:04:00 AM 23.3046 139.7852 342° North 432 497 45,000  Level FlightAware Transoceanic
Thu 03:05:00 AM 23.4258 139.7415 342° North 432 497 45,000  Level FlightAware Transoceanic
Thu 03:06:00 AM 23.5470 139.6978 342° North 432 497 45,000  Level FlightAware Transoceanic
Thu 03:07:00 AM 23.6681 139.6540 342° North 432 497 45,000  Level FlightAware Transoceanic
Thu 03:08:00 AM 23.7893 139.6101 342° North 432 497 45,000  Level FlightAware Transoceanic
Thu 03:09:00 AM 23.9104 139.5662 342° North 432 497 45,000  Level FlightAware Transoceanic
Thu 03:10:00 AM 24.0315 139.5221 342° North 432 497 45,000  Level FlightAware Transoceanic
Thu 03:11:00 AM 24.1526 139.4780 342° North 432 497 45,000  Level FlightAware Transoceanic
Thu 03:12:00 AM 24.2737 139.4338 342° North 432 497 45,000  Level FlightAware Transoceanic
Thu 03:13:00 AM 24.3948 139.3895 342° North 432 497 45,000  Level FlightAware Transoceanic
Thu 03:14:00 AM 24.5159 139.3451 342° North 432 497 45,000  Level FlightAware Transoceanic
Thu 03:15:00 AM 24.6369 139.3006 342° North 432 497 45,000  Level FlightAware Transoceanic
Thu 03:16:00 AM 24.7580 139.2560 341° North 432 497 45,000  Level FlightAware Transoceanic
Thu 03:17:00 AM 24.8790 139.2114 341° North 432 497 45,000  Level FlightAware Transoceanic
Thu 03:18:00 AM 24.9557 139.1725 335° Northwest  Level FlightAware Approximate
Thu 03:19:00 AM 25.0325 139.1335 335° Northwest  Level FlightAware Approximate
Thu 03:20:00 AM 24.9557 139.1725 155° Southeast  Level FlightAware Approximate
Thu 03:21:00 AM 25.0387 139.1545 341° North  Level Estimated
Thu 03:22:00 AM 25.1186 139.1243 341° North  Level FlightAware Approximate
Thu 03:23:00 AM 25.1985 139.0941 341° North  Level FlightAware Approximate
Thu 03:24:00 AM 25.2785 139.0638 341° North  Level FlightAware Approximate
Thu 03:25:00 AM 25.3584 139.0335 341° North  Level FlightAware Approximate
Thu 03:26:00 AM 25.4383 139.0032 341° North  Level FlightAware Approximate
Thu 03:27:00 AM 25.5182 138.9728 341° North  Level FlightAware Approximate
Thu 03:28:00 AM 25.5981 138.9424 341° North  Level FlightAware Approximate
Thu 03:29:00 AM 25.6780 138.9119 341° North  Level FlightAware Approximate
Thu 03:30:00 AM 25.7579 138.8814 341° North  Level FlightAware Approximate
Thu 03:31:00 AM 25.8378 138.8509 341° North  Level FlightAware Approximate
Thu 03:32:00 AM 25.9177 138.8203 341° North  Level FlightAware Approximate
Thu 03:33:00 AM 25.9976 138.7897 341° North  Level FlightAware Approximate
Thu 03:34:00 AM 26.0774 138.7590 341° North  Level FlightAware Approximate
Thu 03:35:00 AM 26.1573 138.7283 341° North  Level FlightAware Approximate
Thu 03:36:00 AM 26.2372 138.6976 341° North  Level FlightAware Approximate
Thu 03:37:00 AM 26.3170 138.6668 341° North  Level FlightAware Approximate
Thu 03:38:00 AM 26.3969 138.6359 341° North  Level FlightAware Approximate
Thu 03:39:00 AM 26.4767 138.6051 341° North  Level FlightAware Approximate
Thu 03:40:00 AM 26.5565 138.5741 341° North  Level FlightAware Approximate
Thu 03:41:00 AM 26.6363 138.5432 341° North  Level FlightAware Approximate
Thu 03:42:00 AM 26.7162 138.5122 341° North  Level FlightAware Approximate
Thu 03:43:00 AM 26.7960 138.4811 341° North  Level FlightAware Approximate
Thu 03:44:00 AM 26.8758 138.4500 341° North  Level FlightAware Approximate
Thu 03:45:00 AM 26.9556 138.4189 341° North  Level FlightAware Approximate
Thu 03:46:00 AM 27.0354 138.3877 341° North  Level FlightAware Approximate
Thu 03:47:00 AM 27.1151 138.3565 341° North  Level FlightAware Approximate
Thu 03:48:00 AM 27.1949 138.3253 341° North  Level FlightAware Approximate
Thu 03:49:00 AM 27.2747 138.2939 341° North  Level FlightAware Approximate
Thu 03:50:00 AM 27.3544 138.2626 341° North  Level FlightAware Approximate
Thu 03:51:00 AM 27.4342 138.2312 341° North  Level FlightAware Approximate
Thu 03:52:00 AM 27.5139 138.1997 341° North  Level FlightAware Approximate
Thu 03:53:00 AM 27.5937 138.1682 341° North  Level FlightAware Approximate
Thu 03:54:00 AM 27.6734 138.1367 341° North  Level FlightAware Approximate
Thu 03:55:00 AM 27.7531 138.1051 341° North  Level FlightAware Approximate
Thu 03:56:00 AM 27.8367 138.0909 341° North  Level Estimated
Thu 03:57:00 AM 27.9164 138.0592 341° North  Level FlightAware Approximate
Thu 03:58:00 AM 27.9961 138.0274 341° North  Level FlightAware Approximate
Thu 03:59:00 AM 28.0758 137.9956 341° North  Level FlightAware Approximate
Thu 04:00:00 AM 28.1554 137.9637 341° North  Level FlightAware Approximate
Thu 04:01:00 AM 28.2351 137.9318 341° North  Level FlightAware Approximate
Thu 04:02:00 AM 28.3148 137.8999 341° North  Level FlightAware Approximate
Thu 04:03:00 AM 28.3944 137.8679 341° North  Level FlightAware Approximate
Thu 04:04:00 AM 28.4741 137.8358 341° North  Level FlightAware Approximate
Thu 04:05:00 AM 28.5537 137.8037 341° North  Level FlightAware Approximate
Thu 04:06:00 AM 28.6333 137.7716 340° North  Level FlightAware Approximate
Thu 04:07:00 AM 28.7129 137.7394 340° North  Level FlightAware Approximate
Thu 04:08:00 AM 28.7926 137.7071 340° North  Level FlightAware Approximate
Thu 04:09:00 AM 28.8722 137.6748 340° North  Level FlightAware Approximate
Thu 04:10:00 AM 28.9561 137.6634 341° North  Level Estimated
Thu 04:11:00 AM 29.0357 137.6310 340° North  Level FlightAware Approximate
Thu 04:12:00 AM 29.1152 137.5984 340° North  Level FlightAware Approximate
Thu 04:13:00 AM 29.1948 137.5659 340° North  Level FlightAware Approximate
Thu 04:14:00 AM 29.2743 137.5333 340° North  Level FlightAware Approximate
Thu 04:15:00 AM 29.3539 137.5006 340° North  Level FlightAware Approximate
Thu 04:16:00 AM 29.4334 137.4679 340° North  Level FlightAware Approximate
Thu 04:17:00 AM 29.5129 137.4352 340° North  Level FlightAware Approximate
Thu 04:18:00 AM 29.5925 137.4023 340° North  Level FlightAware Approximate
Thu 04:19:00 AM 29.6720 137.3695 340° North  Level FlightAware Approximate
Thu 04:20:00 AM 29.7515 137.3366 340° North  Level FlightAware Approximate
Thu 04:21:00 AM 29.8310 137.3036 340° North  Level FlightAware Approximate
Thu 04:22:00 AM 29.9105 137.2706 340° North  Level FlightAware Approximate
Thu 04:23:00 AM 29.9947 137.2631 340° North  Level Estimated
Thu 04:24:00 AM 30.0726 137.2253 337° Northwest  Level FlightAware Approximate
Thu 04:25:00 AM 30.1505 137.1874 337° Northwest  Level FlightAware Approximate
Thu 04:26:00 AM 30.2283 137.1495 337° Northwest  Level FlightAware Approximate
Thu 04:27:00 AM 30.3062 137.1115 337° Northwest  Level FlightAware Approximate
Thu 04:28:00 AM 30.3841 137.0735 337° Northwest  Level FlightAware Approximate
Thu 04:29:00 AM 30.4684 137.0686 341° North  Level Estimated
Thu 04:30:00 AM 30.5475 137.0341 339° North  Level FlightAware Approximate
Thu 04:31:00 AM 30.6265 136.9995 339° North  Level FlightAware Approximate
Thu 04:32:00 AM 30.7056 136.9648 339° North  Level FlightAware Approximate
Thu 04:33:00 AM 30.7846 136.9300 339° North  Level FlightAware Approximate
Thu 04:34:00 AM 30.8637 136.8952 339° North  Level FlightAware Approximate
Thu 04:35:00 AM 30.9427 136.8604 339° North  Level FlightAware Approximate
Thu 04:36:00 AM 31.0217 136.8255 339° North  Level FlightAware Approximate
Thu 04:37:00 AM 31.1007 136.7905 339° North  Level FlightAware Approximate
Thu 04:38:00 AM 31.1797 136.7555 339° North  Level FlightAware Approximate
Thu 04:39:00 AM 31.2587 136.7204 339° North  Level FlightAware Approximate
Thu 04:40:00 AM 31.3376 136.6852 339° North  Level FlightAware Approximate
Thu 04:41:00 AM 31.4221 136.6880 339° North  Level Estimated
Thu 04:42:00 AM 31.4990 136.6470 336° Northwest  Level FlightAware Approximate
Thu 04:43:00 AM 31.5759 136.6060 336° Northwest  Level FlightAware Approximate
Thu 04:44:00 AM 31.6528 136.5648 336° Northwest  Level FlightAware Approximate
Thu 04:45:00 AM 31.7296 136.5236 335° Northwest  Level FlightAware Approximate
Thu 04:46:00 AM 31.8065 136.4824 335° Northwest  Level FlightAware Approximate
Thu 04:47:00 AM 31.8907 136.4910 341° North  Level Estimated
Thu 04:48:00 AM 31.9687 136.4529 338° Northwest  Level FlightAware Approximate
Thu 04:49:00 AM 32.0468 136.4148 338° Northwest  Level FlightAware Approximate
Thu 04:50:00 AM 32.1248 136.3766 337° Northwest  Level FlightAware Approximate
Thu 04:51:00 AM 32.2029 136.3383 337° Northwest  Level FlightAware Approximate
Thu 04:52:00 AM 32.2809 136.3000 337° Northwest  Level FlightAware Approximate
Thu 04:53:00 AM 32.3589 136.2616 337° Northwest  Level FlightAware Approximate
Thu 04:54:00 AM 32.4421 136.2792 339° North  Level Estimated
Thu 04:55:00 AM 32.5132 136.2251 327° Northwest  Level FlightAware Approximate
Thu 04:56:00 AM 32.5960 136.2450 337° Northwest  Level Estimated
Thu 04:57:00 AM 32.6787 136.2650 339° North  Level Estimated
Thu 04:58:00 AM 32.7346 136.1896 311° West  Level FlightAware Approximate
Thu 04:59:00 AM 32.8168 136.2129 340° North  Level Estimated
Thu 05:00:00 AM 32.8756 136.1407 314° West  Level FlightAware Approximate
Thu 05:01:00 AM 32.9570 136.1673 341° North  Level Estimated
Thu 05:02:00 AM 33.0171 136.0966 315° West  Level FlightAware Approximate
Thu 05:03:00 AM 33.0977 136.1269 331° Northwest  Level Estimated
Thu 05:04:00 AM 33.1782 136.1573 340° North  Level Estimated
Thu 05:05:00 AM 33.2318 136.0792 309° West  Level FlightAware Approximate
Thu 05:06:00 AM 33.3111 136.1139 348° North  Level Estimated
Thu 05:07:00 AM 33.3904 136.1487 344° North  Level Estimated
Thu 05:08:00 AM 33.4420 136.0685 308° West  Level FlightAware Approximate
Thu 05:09:00 AM 33.5197 136.1082 40° Northeast  Level Estimated
Thu 05:10:00 AM 33.5974 136.1481 35° Northeast  Level Estimated
Thu 05:11:00 AM 33.6751 136.1082 337° Northwest  Level FlightAware Approximate
Thu 05:12:00 AM 33.7528 136.0683 337° Northwest  Level FlightAware Approximate
Thu 05:13:00 AM 33.8269 136.1171 38° Northeast  Level Estimated
Thu 05:14:00 AM 33.9104 136.1325 North  Level FlightAware Approximate
Thu 05:15:00 AM 33.9939 136.1480 North  Level FlightAware Approximate
Thu 05:16:00 AM 34.0774 136.1636 North  Level FlightAware Approximate
Thu 05:17:00 AM 34.1475 136.2206 40° Northeast  Level Estimated
Thu 05:18:00 AM 34.2176 136.2777 35° Northeast  Level Estimated
Thu 05:19:00 AM 34.2876 136.3348 40° Northeast  Level Estimated
Thu 05:20:00 AM 34.3576 136.3921 34° Northeast  Level Estimated
Thu 05:21:00 AM 34.4340 136.4359 25° Northeast  Level FlightAware Approximate
Thu 05:22:00 AM 34.5027 136.4954 39° Northeast  Level Estimated
Thu 05:23:00 AM 34.5727 136.5529 34° Northeast  Level FlightAware Approximate
Thu 05:24:00 AM 34.6411 136.6132 32° Northeast  Level Estimated

Login

Don't have an account? Register now (free) for customized features, flight alerts, and more!